sensor_id;sensor_type;location;lat;lon;timestamp;pressure;altitude;pressure_sealevel;temperature;humidity
68871;BME280;55906;52.278;6.808;2023-02-12T00:01:34;103662.25;;;9.23;81.46
68871;BME280;55906;52.278;6.808;2023-02-12T00:04:01;103654.94;;;9.19;81.47
68871;BME280;55906;52.278;6.808;2023-02-12T00:06:27;103661.22;;;9.21;81.61
68871;BME280;55906;52.278;6.808;2023-02-12T00:08:56;103657.34;;;9.16;81.89
68871;BME280;55906;52.278;6.808;2023-02-12T00:11:25;103660.06;;;9.17;81.81
68871;BME280;55906;52.278;6.808;2023-02-12T00:13:52;103658.00;;;9.13;82.27
68871;BME280;55906;52.278;6.808;2023-02-12T00:16:21;103665.31;;;9.17;81.92
68871;BME280;55906;52.278;6.808;2023-02-12T00:18:50;103673.31;;;9.19;81.60
68871;BME280;55906;52.278;6.808;2023-02-12T00:21:17;103679.50;;;9.19;81.68
68871;BME280;55906;52.278;6.808;2023-02-12T00:23:44;103674.00;;;9.16;81.86
68871;BME280;55906;52.278;6.808;2023-02-12T00:26:13;103665.22;;;9.16;81.79
68871;BME280;55906;52.278;6.808;2023-02-12T00:28:40;103672.84;;;9.13;81.68
68871;BME280;55906;52.278;6.808;2023-02-12T00:31:09;103667.59;;;9.13;81.97
68871;BME280;55906;52.278;6.808;2023-02-12T00:33:36;103667.72;;;9.14;81.75
68871;BME280;55906;52.278;6.808;2023-02-12T00:36:03;103672.06;;;9.14;81.77
68871;BME280;55906;52.278;6.808;2023-02-12T00:38:30;103672.06;;;9.14;81.61
68871;BME280;55906;52.278;6.808;2023-02-12T00:40:56;103678.78;;;9.10;82.00
68871;BME280;55906;52.278;6.808;2023-02-12T00:43:25;103677.84;;;9.10;81.99
68871;BME280;55906;52.278;6.808;2023-02-12T00:45:51;103665.50;;;9.09;81.86
68871;BME280;55906;52.278;6.808;2023-02-12T00:48:18;103667.34;;;9.10;81.88
68871;BME280;55906;52.278;6.808;2023-02-12T00:50:45;103671.66;;;9.09;81.50
68871;BME280;55906;52.278;6.808;2023-02-12T00:53:13;103673.38;;;9.09;81.83
68871;BME280;55906;52.278;6.808;2023-02-12T00:55:40;103676.91;;;9.09;81.47
68871;BME280;55906;52.278;6.808;2023-02-12T00:58:07;103676.00;;;9.09;81.95
68871;BME280;55906;52.278;6.808;2023-02-12T01:00:35;103676.00;;;9.09;81.73
68871;BME280;55906;52.278;6.808;2023-02-12T01:03:02;103669.19;;;9.11;81.69
68871;BME280;55906;52.278;6.808;2023-02-12T01:05:29;103666.19;;;9.06;81.92
68871;BME280;55906;52.278;6.808;2023-02-12T01:07:56;103674.97;;;9.07;81.72
68871;BME280;55906;52.278;6.808;2023-02-12T01:10:23;103680.47;;;9.10;81.60
68871;BME280;55906;52.278;6.808;2023-02-12T01:12:50;103679.44;;;9.08;81.84
68871;BME280;55906;52.278;6.808;2023-02-12T01:15:17;103683.75;;;9.07;81.90
68871;BME280;55906;52.278;6.808;2023-02-12T01:17:45;103683.88;;;9.09;81.71
68871;BME280;55906;52.278;6.808;2023-02-12T01:20:14;103681.41;;;9.10;81.63
68871;BME280;55906;52.278;6.808;2023-02-12T01:22:43;103689.94;;;9.08;81.65
68871;BME280;55906;52.278;6.808;2023-02-12T01:25:10;103683.75;;;9.07;81.87
68871;BME280;55906;52.278;6.808;2023-02-12T01:27:37;103688.09;;;9.07;81.61
68871;BME280;55906;52.278;6.808;2023-02-12T01:30:06;103682.06;;;9.08;81.43
68871;BME280;55906;52.278;6.808;2023-02-12T01:32:33;103684.69;;;9.08;81.54
68871;BME280;55906;52.278;6.808;2023-02-12T01:35:01;103683.09;;;9.10;81.64
68871;BME280;55906;52.278;6.808;2023-02-12T01:37:28;103688.50;;;9.11;81.42
68871;BME280;55906;52.278;6.808;2023-02-12T01:39:54;103690.97;;;9.10;81.75
68871;BME280;55906;52.278;6.808;2023-02-12T01:42:21;103686.78;;;9.12;81.53
68871;BME280;55906;52.278;6.808;2023-02-12T01:47:48;103690.44;;;9.14;81.46
68871;BME280;55906;52.278;6.808;2023-02-12T01:50:18;103686.09;;;9.14;81.33
68871;BME280;55906;52.278;6.808;2023-02-12T01:52:47;103689.66;;;9.15;81.23
68871;BME280;55906;52.278;6.808;2023-02-12T01:55:15;103689.53;;;9.13;81.31
68871;BME280;55906;52.278;6.808;2023-02-12T01:57:44;103690.56;;;9.15;81.27
68871;BME280;55906;52.278;6.808;2023-02-12T02:00:14;103690.31;;;9.12;81.29
68871;BME280;55906;52.278;6.808;2023-02-12T02:02:42;103686.09;;;9.14;81.37
68871;BME280;55906;52.278;6.808;2023-02-12T02:05:12;103686.09;;;9.14;81.25
68871;BME280;55906;52.278;6.808;2023-02-12T02:07:42;103693.06;;;9.14;81.27
68871;BME280;55906;52.278;6.808;2023-02-12T02:10:09;103684.94;;;9.11;81.39
68871;BME280;55906;52.278;6.808;2023-02-12T02:12:37;103690.44;;;9.14;81.49
68871;BME280;55906;52.278;6.808;2023-02-12T02:15:21;103680.47;;;9.10;81.46
68871;BME280;55906;52.278;6.808;2023-02-12T02:17:51;103671.94;;;9.12;81.28
68871;BME280;55906;52.278;6.808;2023-02-12T02:20:48;103673.66;;;9.12;81.30
68871;BME280;55906;52.278;6.808;2023-02-12T02:26:26;103673.81;;;9.03;81.77
68871;BME280;55906;52.278;6.808;2023-02-12T02:29:05;103669.47;;;9.04;81.57
68871;BME280;55906;52.278;6.808;2023-02-12T02:31:40;103664.00;;;9.01;81.48
68871;BME280;55906;52.278;6.808;2023-02-12T02:34:12;103667.53;;;9.01;81.74
68871;BME280;55906;52.278;6.808;2023-02-12T02:36:45;103665.72;;;9.00;81.51
68871;BME280;55906;52.278;6.808;2023-02-12T02:39:16;103662.16;;;8.99;81.42
68871;BME280;55906;52.278;6.808;2023-02-12T02:41:48;103663.88;;;8.99;81.64
68871;BME280;55906;52.278;6.808;2023-02-12T02:44:18;103661.94;;;8.96;81.78
68871;BME280;55906;52.278;6.808;2023-02-12T02:46:50;103667.06;;;8.95;82.10
68871;BME280;55906;52.278;6.808;2023-02-12T02:49:20;103660.66;;;8.91;82.11
68871;BME280;55906;52.278;6.808;2023-02-12T02:51:52;103652.91;;;8.93;82.03
68871;BME280;55906;52.278;6.808;2023-02-12T02:54:25;103652.78;;;8.91;81.99
68871;BME280;55906;52.278;6.808;2023-02-12T02:56:58;103653.59;;;8.90;82.23
68871;BME280;55906;52.278;6.808;2023-02-12T02:59:31;103650.03;;;8.90;81.99
68871;BME280;55906;52.278;6.808;2023-02-12T03:02:07;103649.13;;;8.89;81.84
68871;BME280;55906;52.278;6.808;2023-02-12T03:04:36;103642.84;;;8.87;81.91
68871;BME280;55906;52.278;6.808;2023-02-12T03:07:08;103648.09;;;8.87;82.25
68871;BME280;55906;52.278;6.808;2023-02-12T03:09:38;103639.41;;;8.88;82.01
68871;BME280;55906;52.278;6.808;2023-02-12T03:12:10;103641.94;;;8.87;82.11
68871;BME280;55906;52.278;6.808;2023-02-12T03:14:41;103646.50;;;8.89;81.89
68871;BME280;55906;52.278;6.808;2023-02-12T03:17:14;103659.50;;;8.88;82.22
68871;BME280;55906;52.278;6.808;2023-02-12T03:19:45;103655.97;;;8.87;82.14
68871;BME280;55906;52.278;6.808;2023-02-12T03:22:15;103658.59;;;8.87;82.18
68871;BME280;55906;52.278;6.808;2023-02-12T03:24:46;103654.94;;;8.85;82.27
68871;BME280;55906;52.278;6.808;2023-02-12T03:27:17;103647.06;;;8.85;82.38
68871;BME280;55906;52.278;6.808;2023-02-12T03:29:45;103647.63;;;8.81;82.29
68871;BME280;55906;52.278;6.808;2023-02-12T03:32:22;103645.66;;;8.79;82.32
68871;BME280;55906;52.278;6.808;2023-02-12T03:34:52;103651.03;;;8.80;82.11
68871;BME280;55906;52.278;6.808;2023-02-12T03:37:25;103650.13;;;8.80;82.31
68871;BME280;55906;52.278;6.808;2023-02-12T03:39:56;103648.19;;;8.77;82.15
68871;BME280;55906;52.278;6.808;2023-02-12T03:42:31;103644.53;;;8.75;82.57
68871;BME280;55906;52.278;6.808;2023-02-12T03:45:02;103646.00;;;8.72;82.98
68871;BME280;55906;52.278;6.808;2023-02-12T03:47:38;103653.19;;;8.74;82.38
68871;BME280;55906;52.278;6.808;2023-02-12T03:50:10;103640.75;;;8.72;82.43
68871;BME280;55906;52.278;6.808;2023-02-12T03:52:39;103652.03;;;8.71;82.42
68871;BME280;55906;52.278;6.808;2023-02-12T03:55:06;103655.44;;;8.70;82.52
68871;BME280;55906;52.278;6.808;2023-02-12T03:57:37;103647.59;;;8.70;82.58
68871;BME280;55906;52.278;6.808;2023-02-12T04:00:08;103653.63;;;8.69;82.85
68871;BME280;55906;52.278;6.808;2023-02-12T04:02:36;103655.34;;;8.68;82.65
68871;BME280;55906;52.278;6.808;2023-02-12T04:05:04;103664.00;;;8.67;82.51
68871;BME280;55906;52.278;6.808;2023-02-12T04:07:31;103662.84;;;8.63;82.66
68871;BME280;55906;52.278;6.808;2023-02-12T04:09:58;103651.06;;;8.58;82.97
68871;BME280;55906;52.278;6.808;2023-02-12T04:12:35;103663.53;;;8.61;82.94
68871;BME280;55906;52.278;6.808;2023-02-12T04:15:23;103669.56;;;8.60;82.68
68871;BME280;55906;52.278;6.808;2023-02-12T04:18:02;103666.44;;;8.54;83.44
68871;BME280;55906;52.278;6.808;2023-02-12T04:20:47;103675.25;;;8.54;83.17
68871;BME280;55906;52.278;6.808;2023-02-12T04:23:22;103680.59;;;8.56;83.04
68871;BME280;55906;52.278;6.808;2023-02-12T04:26:00;103686.66;;;8.55;83.06
68871;BME280;55906;52.278;6.808;2023-02-12T04:28:34;103690.19;;;8.55;82.90
68871;BME280;55906;52.278;6.808;2023-02-12T04:31:04;103682.75;;;8.50;83.11
68871;BME280;55906;52.278;6.808;2023-02-12T04:33:39;103698.47;;;8.50;83.43
68871;BME280;55906;52.278;6.808;2023-02-12T04:36:12;103698.38;;;8.48;83.43
68871;BME280;55906;52.278;6.808;2023-02-12T04:38:45;103693.78;;;8.46;83.46
68871;BME280;55906;52.278;6.808;2023-02-12T04:41:15;103697.19;;;8.45;83.38
68871;BME280;55906;52.278;6.808;2023-02-12T04:43:42;103695.50;;;8.45;83.35
68871;BME280;55906;52.278;6.808;2023-02-12T04:46:09;103701.78;;;8.47;83.06
68871;BME280;55906;52.278;6.808;2023-02-12T04:48:48;103709.53;;;8.46;83.79
68871;BME280;55906;52.278;6.808;2023-02-12T04:51:15;103711.13;;;8.44;83.65
68871;BME280;55906;52.278;6.808;2023-02-12T04:53:42;103704.03;;;8.43;83.35
68871;BME280;55906;52.278;6.808;2023-02-12T04:56:10;103707.44;;;8.42;83.71
68871;BME280;55906;52.278;6.808;2023-02-12T04:58:37;103709.41;;;8.44;83.20
68871;BME280;55906;52.278;6.808;2023-02-12T05:01:04;103707.69;;;8.45;83.63
68871;BME280;55906;52.278;6.808;2023-02-12T05:03:30;103703.25;;;8.44;83.09
68871;BME280;55906;52.278;6.808;2023-02-12T05:06:02;103703.78;;;8.40;83.54
68871;BME280;55906;52.278;6.808;2023-02-12T05:08:29;103703.53;;;8.37;83.45
68871;BME280;55906;52.278;6.808;2023-02-12T05:10:55;103703.53;;;8.37;83.81
68871;BME280;55906;52.278;6.808;2023-02-12T05:13:22;103706.16;;;8.37;83.78
68871;BME280;55906;52.278;6.808;2023-02-12T05:15:49;103709.19;;;8.31;83.93
68871;BME280;55906;52.278;6.808;2023-02-12T05:18:15;103706.44;;;8.29;84.13
68871;BME280;55906;52.278;6.808;2023-02-12T05:20:42;103713.13;;;8.26;83.95
68871;BME280;55906;52.278;6.808;2023-02-12T05:23:10;103707.75;;;8.24;84.34
68871;BME280;55906;52.278;6.808;2023-02-12T05:25:36;103716.66;;;8.26;84.24
68871;BME280;55906;52.278;6.808;2023-02-12T05:28:03;103713.13;;;8.26;83.82
68871;BME280;55906;52.278;6.808;2023-02-12T05:30:30;103711.19;;;8.23;84.40
68871;BME280;55906;52.278;6.808;2023-02-12T05:32:56;103714.72;;;8.24;84.18
68871;BME280;55906;52.278;6.808;2023-02-12T05:35:23;103714.59;;;8.22;84.19
68871;BME280;55906;52.278;6.808;2023-02-12T05:37:50;103709.34;;;8.22;84.18
68871;BME280;55906;52.278;6.808;2023-02-12T05:40:18;103719.03;;;8.23;84.44
68871;BME280;55906;52.278;6.808;2023-02-12T05:42:44;103721.66;;;8.23;83.82
68871;BME280;55906;52.278;6.808;2023-02-12T05:45:11;103723.50;;;8.24;84.63
68871;BME280;55906;52.278;6.808;2023-02-12T05:47:38;103725.09;;;8.22;84.21
68871;BME280;55906;52.278;6.808;2023-02-12T05:50:06;103723.78;;;8.17;84.72
68871;BME280;55906;52.278;6.808;2023-02-12T05:52:32;103706.78;;;8.12;84.86
68871;BME280;55906;52.278;6.808;2023-02-12T05:54:59;103722.09;;;8.18;84.51
68871;BME280;55906;52.278;6.808;2023-02-12T05:57:28;103724.84;;;8.19;84.62
68871;BME280;55906;52.278;6.808;2023-02-12T05:59:55;103712.63;;;8.20;84.57
68871;BME280;55906;52.278;6.808;2023-02-12T06:02:21;103710.00;;;8.20;84.87
68871;BME280;55906;52.278;6.808;2023-02-12T06:04:48;103714.59;;;8.22;84.56
68871;BME280;55906;52.278;6.808;2023-02-12T06:07:15;103714.34;;;8.19;84.77
68871;BME280;55906;52.278;6.808;2023-02-12T06:09:41;103713.19;;;8.16;84.32
68871;BME280;55906;52.278;6.808;2023-02-12T06:12:08;103720.25;;;8.17;84.80
68871;BME280;55906;52.278;6.808;2023-02-12T06:14:36;103723.91;;;8.19;84.63
68871;BME280;55906;52.278;6.808;2023-02-12T06:17:02;103722.22;;;8.19;84.16
68871;BME280;55906;52.278;6.808;2023-02-12T06:19:29;103726.28;;;8.16;84.81
68871;BME280;55906;52.278;6.808;2023-02-12T06:21:55;103731.41;;;8.14;84.98
68871;BME280;55906;52.278;6.808;2023-02-12T06:24:22;103720.91;;;8.14;84.24
68871;BME280;55906;52.278;6.808;2023-02-12T06:26:50;103725.25;;;8.14;83.97
68871;BME280;55906;52.278;6.808;2023-02-12T06:29:17;103728.78;;;8.14;84.37
68871;BME280;55906;52.278;6.808;2023-02-12T06:31:45;103725.00;;;8.11;84.54
68871;BME280;55906;52.278;6.808;2023-02-12T06:34:13;103719.75;;;8.11;84.18
68871;BME280;55906;52.278;6.808;2023-02-12T06:36:43;103722.25;;;8.09;84.41
68871;BME280;55906;52.278;6.808;2023-02-12T06:39:10;103728.41;;;8.10;85.08
68871;BME280;55906;52.278;6.808;2023-02-12T06:41:37;103725.66;;;8.08;84.76
68871;BME280;55906;52.278;6.808;2023-02-12T06:44:05;103734.97;;;8.05;84.85
68871;BME280;55906;52.278;6.808;2023-02-12T06:46:32;103735.09;;;8.06;85.17
68871;BME280;55906;52.278;6.808;2023-02-12T06:49:00;103740.63;;;7.99;85.01
68871;BME280;55906;52.278;6.808;2023-02-12T06:51:28;103734.47;;;7.98;84.87
68871;BME280;55906;52.278;6.808;2023-02-12T06:53:55;103739.72;;;7.98;85.27
68871;BME280;55906;52.278;6.808;2023-02-12T06:56:24;103742.22;;;7.97;84.70
68871;BME280;55906;52.278;6.808;2023-02-12T06:58:53;103746.91;;;8.01;84.76
68871;BME280;55906;52.278;6.808;2023-02-12T07:01:23;103744.19;;;7.99;84.56
68871;BME280;55906;52.278;6.808;2023-02-12T07:03:51;103745.09;;;8.00;84.61
68871;BME280;55906;52.278;6.808;2023-02-12T07:06:20;103745.75;;;7.97;85.39
68871;BME280;55906;52.278;6.808;2023-02-12T07:08:47;103748.25;;;7.96;85.53
68871;BME280;55906;52.278;6.808;2023-02-12T07:11:14;103751.00;;;7.97;85.03
68871;BME280;55906;52.278;6.808;2023-02-12T07:13:42;103755.31;;;7.97;85.00
68871;BME280;55906;52.278;6.808;2023-02-12T07:16:11;103756.38;;;7.99;84.99
68871;BME280;55906;52.278;6.808;2023-02-12T07:18:38;103757.94;;;7.97;85.33
68871;BME280;55906;52.278;6.808;2023-02-12T07:21:07;103759.00;;;7.99;85.71
68871;BME280;55906;52.278;6.808;2023-02-12T07:23:35;103765.16;;;7.99;85.43
68871;BME280;55906;52.278;6.808;2023-02-12T07:26:04;103769.34;;;7.97;85.80
68871;BME280;55906;52.278;6.808;2023-02-12T07:28:31;103764.22;;;7.99;85.98
68871;BME280;55906;52.278;6.808;2023-02-12T07:30:58;103774.84;;;8.00;85.68
68871;BME280;55906;52.278;6.808;2023-02-12T07:33:25;103775.88;;;8.02;85.24
68871;BME280;55906;52.278;6.808;2023-02-12T07:35:52;103776.13;;;8.06;85.71
68871;BME280;55906;52.278;6.808;2023-02-12T07:38:18;103778.09;;;8.08;85.51
68871;BME280;55906;52.278;6.808;2023-02-12T07:40:46;103785.03;;;8.08;85.41
68871;BME280;55906;52.278;6.808;2023-02-12T07:43:13;103787.66;;;8.08;84.97
68871;BME280;55906;52.278;6.808;2023-02-12T07:45:39;103790.53;;;8.11;84.93
68871;BME280;55906;52.278;6.808;2023-02-12T07:48:06;103795.78;;;8.11;85.37
68871;BME280;55906;52.278;6.808;2023-02-12T07:50:33;103799.06;;;8.08;84.92
68871;BME280;55906;52.278;6.808;2023-02-12T07:52:59;103795.78;;;8.11;85.65
68871;BME280;55906;52.278;6.808;2023-02-12T07:55:26;103793.53;;;8.15;85.10
68871;BME280;55906;52.278;6.808;2023-02-12T07:57:54;103800.34;;;8.23;85.04
68871;BME280;55906;52.278;6.808;2023-02-12T08:00:21;103802.03;;;8.23;84.70
68871;BME280;55906;52.278;6.808;2023-02-12T08:02:51;103802.44;;;8.27;84.79
68871;BME280;55906;52.278;6.808;2023-02-12T08:05:18;103809.50;;;8.28;84.48
68871;BME280;55906;52.278;6.808;2023-02-12T08:07:45;103807.78;;;8.29;84.43
68871;BME280;55906;52.278;6.808;2023-02-12T08:10:11;103815.00;;;8.31;84.51
68871;BME280;55906;52.278;6.808;2023-02-12T08:12:38;103811.88;;;8.25;84.41
68871;BME280;55906;52.278;6.808;2023-02-12T08:15:07;103809.13;;;8.24;85.07
68871;BME280;55906;52.278;6.808;2023-02-12T08:17:33;103820.00;;;8.28;85.02
68871;BME280;55906;52.278;6.808;2023-02-12T08:20:00;103816.31;;;8.26;85.02
68871;BME280;55906;52.278;6.808;2023-02-12T08:22:26;103823.94;;;8.33;84.77
68871;BME280;55906;52.278;6.808;2023-02-12T08:24:53;103816.59;;;8.40;84.43
68871;BME280;55906;52.278;6.808;2023-02-12T08:27:20;103819.97;;;8.49;84.03
68871;BME280;55906;52.278;6.808;2023-02-12T08:29:46;103831.75;;;8.54;83.77
68871;BME280;55906;52.278;6.808;2023-02-12T08:32:14;103834.75;;;8.58;83.55
68871;BME280;55906;52.278;6.808;2023-02-12T08:34:41;103834.75;;;8.58;83.77
68871;BME280;55906;52.278;6.808;2023-02-12T08:37:08;103839.19;;;8.59;83.50
68871;BME280;55906;52.278;6.808;2023-02-12T08:39:34;103842.44;;;8.67;83.32
68871;BME280;55906;52.278;6.808;2023-02-12T08:42:01;103845.31;;;8.70;82.97
68871;BME280;55906;52.278;6.808;2023-02-12T08:44:28;103845.69;;;8.75;83.43
68871;BME280;55906;52.278;6.808;2023-02-12T08:46:55;103843.31;;;8.78;82.91
68871;BME280;55906;52.278;6.808;2023-02-12T08:49:24;103851.56;;;8.82;83.07
68871;BME280;55906;52.278;6.808;2023-02-12T08:51:54;103849.59;;;8.80;82.82
68871;BME280;55906;52.278;6.808;2023-02-12T08:54:23;103850.28;;;8.77;82.84
68871;BME280;55906;52.278;6.808;2023-02-12T08:56:53;103849.19;;;8.85;82.99
68871;BME280;55906;52.278;6.808;2023-02-12T08:59:20;103843.94;;;8.85;82.54
68871;BME280;55906;52.278;6.808;2023-02-12T09:01:49;103850.34;;;8.89;82.53
68871;BME280;55906;52.278;6.808;2023-02-12T09:04:19;103862.81;;;8.91;82.48
68871;BME280;55906;52.278;6.808;2023-02-12T09:06:47;103853.34;;;8.93;82.57
68871;BME280;55906;52.278;6.808;2023-02-12T09:09:15;103857.38;;;9.00;82.01
68871;BME280;55906;52.278;6.808;2023-02-12T09:11:42;103849.19;;;9.07;82.05
68871;BME280;55906;52.278;6.808;2023-02-12T09:14:11;103855.47;;;9.19;81.77
68871;BME280;55906;52.278;6.808;2023-02-12T09:16:38;103861.88;;;9.23;81.81
68871;BME280;55906;52.278;6.808;2023-02-12T09:19:05;103858.34;;;9.22;81.49
68871;BME280;55906;52.278;6.808;2023-02-12T09:21:31;103860.41;;;9.26;81.63
68871;BME280;55906;52.278;6.808;2023-02-12T09:24:01;103863.41;;;9.31;81.49
68871;BME280;55906;52.278;6.808;2023-02-12T09:26:28;103861.94;;;9.35;81.55
68871;BME280;55906;52.278;6.808;2023-02-12T09:28:55;103867.31;;;9.36;81.21
68871;BME280;55906;52.278;6.808;2023-02-12T09:31:23;103865.72;;;9.38;81.30
68871;BME280;55906;52.278;6.808;2023-02-12T09:33:52;103864.13;;;9.40;81.22
68871;BME280;55906;52.278;6.808;2023-02-12T09:36:19;103872.50;;;9.46;80.95
68871;BME280;55906;52.278;6.808;2023-02-12T09:38:46;103864.38;;;9.43;80.78
68871;BME280;55906;52.278;6.808;2023-02-12T09:41:41;103865.75;;;9.50;80.66
68871;BME280;55906;52.278;6.808;2023-02-12T09:44:16;103867.28;;;9.58;80.68
68871;BME280;55906;52.278;6.808;2023-02-12T09:46:49;103865.00;;;9.62;80.06
68871;BME280;55906;52.278;6.808;2023-02-12T09:49:28;103862.84;;;9.69;80.02
68871;BME280;55906;52.278;6.808;2023-02-12T09:52:00;103864.94;;;9.73;79.97
68871;BME280;55906;52.278;6.808;2023-02-12T09:54:34;103871.09;;;9.73;79.74
68871;BME280;55906;52.278;6.808;2023-02-12T09:57:10;103868.16;;;9.80;79.97
68871;BME280;55906;52.278;6.808;2023-02-12T09:59:41;103874.91;;;9.88;79.42
68871;BME280;55906;52.278;6.808;2023-02-12T10:02:11;103870.81;;;9.92;79.51
68871;BME280;55906;52.278;6.808;2023-02-12T10:04:40;103875.50;;;9.96;79.24
68871;BME280;55906;52.278;6.808;2023-02-12T10:07:17;103880.88;;;9.98;79.00
68871;BME280;55906;52.278;6.808;2023-02-12T10:09:59;103881.59;;;10.07;78.94
68871;BME280;55906;52.278;6.808;2023-02-12T10:12:33;103878.03;;;10.06;78.72
68871;BME280;55906;52.278;6.808;2023-02-12T10:15:12;103881.47;;;10.05;78.42
68871;BME280;55906;52.278;6.808;2023-02-12T10:17:42;103870.50;;;10.11;78.73
68871;BME280;55906;52.278;6.808;2023-02-12T10:23:26;103871.56;;;10.24;78.15
68871;BME280;55906;52.278;6.808;2023-02-12T10:25:57;103871.00;;;10.29;78.01
68871;BME280;55906;52.278;6.808;2023-02-12T10:28:30;103873.06;;;10.33;77.83
68871;BME280;55906;52.278;6.808;2023-02-12T10:31:00;103871.59;;;10.36;77.88
68871;BME280;55906;52.278;6.808;2023-02-12T10:33:30;103870.31;;;10.31;77.30
68871;BME280;55906;52.278;6.808;2023-02-12T10:36:05;103877.88;;;10.38;76.73
68871;BME280;55906;52.278;6.808;2023-02-12T10:38:38;103872.19;;;10.44;77.21
68871;BME280;55906;52.278;6.808;2023-02-12T10:41:09;103872.88;;;10.53;77.19
68871;BME280;55906;52.278;6.808;2023-02-12T10:43:40;103875.97;;;10.59;76.34
68871;BME280;55906;52.278;6.808;2023-02-12T10:46:12;103871.03;;;10.64;76.67
68871;BME280;55906;52.278;6.808;2023-02-12T10:48:41;103871.72;;;10.73;76.42
68871;BME280;55906;52.278;6.808;2023-02-12T10:51:28;103874.22;;;10.83;76.11
68871;BME280;55906;52.278;6.808;2023-02-12T10:54:30;103863.88;;;10.98;75.86
68871;BME280;55906;52.278;6.808;2023-02-12T10:56:57;103873.63;;;10.99;75.65
68871;BME280;55906;52.278;6.808;2023-02-12T10:59:25;103872.81;;;11.00;74.02
68871;BME280;55906;52.278;6.808;2023-02-12T11:01:52;103876.00;;;11.07;75.90
68871;BME280;55906;52.278;6.808;2023-02-12T11:04:24;103872.53;;;11.20;74.94
68871;BME280;55906;52.278;6.808;2023-02-12T11:06:57;103870.91;;;11.22;75.04
68871;BME280;55906;52.278;6.808;2023-02-12T11:09:28;103865.16;;;11.28;74.65
68871;BME280;55906;52.278;6.808;2023-02-12T11:11:55;103868.13;;;11.32;74.41
68871;BME280;55906;52.278;6.808;2023-02-12T11:14:24;103872.81;;;11.36;73.56
68871;BME280;55906;52.278;6.808;2023-02-12T11:16:52;103866.94;;;11.40;74.29
68871;BME280;55906;52.278;6.808;2023-02-12T11:19:22;103866.56;;;11.47;74.01
68871;BME280;55906;52.278;6.808;2023-02-12T11:21:50;103860.00;;;11.54;73.55
68871;BME280;55906;52.278;6.808;2023-02-12T11:24:26;103853.44;;;11.61;73.30
68871;BME280;55906;52.278;6.808;2023-02-12T11:27:10;103848.25;;;11.74;73.30
68871;BME280;55906;52.278;6.808;2023-02-12T11:29:38;103845.72;;;11.75;73.42
68871;BME280;55906;52.278;6.808;2023-02-12T11:32:06;103836.09;;;11.76;73.18
68871;BME280;55906;52.278;6.808;2023-02-12T11:34:34;103851.34;;;11.80;72.71
68871;BME280;55906;52.278;6.808;2023-02-12T11:37:01;103845.06;;;11.78;72.54
68871;BME280;55906;52.278;6.808;2023-02-12T11:39:30;103845.16;;;11.79;72.13
68871;BME280;55906;52.278;6.808;2023-02-12T11:41:59;103841.81;;;11.82;72.47
68871;BME280;55906;52.278;6.808;2023-02-12T11:44:30;103839.97;;;11.81;71.99
68871;BME280;55906;52.278;6.808;2023-02-12T11:47:01;103840.09;;;11.82;71.39
68871;BME280;55906;52.278;6.808;2023-02-12T11:49:37;103836.75;;;11.85;70.54
68871;BME280;55906;52.278;6.808;2023-02-12T11:52:05;103838.28;;;11.95;71.61
68871;BME280;55906;52.278;6.808;2023-02-12T11:54:38;103840.31;;;11.99;71.31
68871;BME280;55906;52.278;6.808;2023-02-12T11:57:09;103830.88;;;12.02;70.97
68871;BME280;55906;52.278;6.808;2023-02-12T11:59:38;103837.16;;;11.91;70.86
68871;BME280;55906;52.278;6.808;2023-02-12T12:02:16;103834.09;;;11.85;70.32
68871;BME280;55906;52.278;6.808;2023-02-12T12:04:48;103828.22;;;11.89;70.50
68871;BME280;55906;52.278;6.808;2023-02-12T12:07:20;103833.72;;;11.92;70.33
68871;BME280;55906;52.278;6.808;2023-02-12T12:09:54;103826.81;;;11.94;70.25
68871;BME280;55906;52.278;6.808;2023-02-12T12:12:30;103820.13;;;11.99;70.21
68871;BME280;55906;52.278;6.808;2023-02-12T12:15:00;103822.16;;;12.03;70.25
68871;BME280;55906;52.278;6.808;2023-02-12T12:17:53;103818.13;;;12.08;69.48
68871;BME280;55906;52.278;6.808;2023-02-12T12:20:44;103811.72;;;12.18;67.42
68871;BME280;55906;52.278;6.808;2023-02-12T12:23:16;103813.25;;;12.28;68.87
68871;BME280;55906;52.278;6.808;2023-02-12T12:25:46;103804.72;;;12.32;68.01
68871;BME280;55906;52.278;6.808;2023-02-12T12:28:27;103801.47;;;12.36;67.89
68871;BME280;55906;52.278;6.808;2023-02-12T12:31:05;103798.22;;;12.40;67.36
68871;BME280;55906;52.278;6.808;2023-02-12T12:33:40;103796.50;;;12.40;67.94
68871;BME280;55906;52.278;6.808;2023-02-12T12:36:36;103789.16;;;12.49;67.69
68871;BME280;55906;52.278;6.808;2023-02-12T12:39:15;103788.66;;;12.42;66.77
68871;BME280;55906;52.278;6.808;2023-02-12T12:42:06;103774.81;;;12.59;67.55
68871;BME280;55906;52.278;6.808;2023-02-12T12:44:47;103780.94;;;12.45;67.57
68871;BME280;55906;52.278;6.808;2023-02-12T12:47:21;103771.00;;;12.28;67.08
68871;BME280;55906;52.278;6.808;2023-02-12T12:49:59;103769.59;;;12.33;67.87
68871;BME280;55906;52.278;6.808;2023-02-12T12:52:45;103769.28;;;12.41;67.17
68871;BME280;55906;52.278;6.808;2023-02-12T12:55:47;103774.44;;;12.40;66.00
68871;BME280;55906;52.278;6.808;2023-02-12T12:58:25;103773.44;;;12.38;66.55
68871;BME280;55906;52.278;6.808;2023-02-12T13:01:17;103776.78;;;12.48;67.27
68871;BME280;55906;52.278;6.808;2023-02-12T13:04:19;103762.25;;;12.42;67.44
68871;BME280;55906;52.278;6.808;2023-02-12T13:07:06;103764.50;;;12.36;67.47
68871;BME280;55906;52.278;6.808;2023-02-12T13:09:53;103761.44;;;12.43;67.08
68871;BME280;55906;52.278;6.808;2023-02-12T13:12:44;103766.22;;;12.48;66.60
68871;BME280;55906;52.278;6.808;2023-02-12T13:15:18;103762.47;;;12.45;67.52
68871;BME280;55906;52.278;6.808;2023-02-12T13:17:52;103766.31;;;12.50;67.60
68871;BME280;55906;52.278;6.808;2023-02-12T13:20:32;103759.91;;;12.46;67.50
68871;BME280;55906;52.278;6.808;2023-02-12T13:23:04;103761.88;;;12.36;68.21
68871;BME280;55906;52.278;6.808;2023-02-12T13:25:40;103753.66;;;12.31;67.84